Time;durP1;ratioP1;P1;durP2;ratioP2;P2;SDS_P1;SDS_P2;PMS_P1;PMS_P2;Temp;Humidity;BMP_temperature;BMP_pressure;BME280_temperature;BME280_humidity;BME280_pressure;Samples;Min_cycle;Max_cycle;Signal;HPM_P1;HPM_P2
2022/08/25 00:00:34;;;;;;;5.90;5.30;;;;;26.00;100644.00;;;;2095323;28;20655;-58
2022/08/25 00:01:37;;;;;;;5.60;5.10;;;;;26.00;100642.00;;;;2094987;28;20308;-53
2022/08/25 00:02:37;;;;;;;5.80;5.30;;;;;26.10;100637.00;;;;2086005;28;20213;-57
2022/08/25 00:03:37;;;;;;;5.93;5.43;;;;;26.00;100643.00;;;;2086995;28;21037;-56
2022/08/25 00:04:38;;;;;;;5.93;5.43;;;;;26.00;100639.00;;;;2094805;28;20672;-55
2022/08/25 00:05:38;;;;;;;6.57;5.80;;;;;26.00;100641.00;;;;2087237;28;20217;-56
2022/08/25 00:06:39;;;;;;;5.20;4.70;;;;;26.00;100639.00;;;;2087093;28;20228;-56
2022/08/25 00:07:39;;;;;;;5.63;5.23;;;;;26.00;100644.00;;;;2085519;28;20262;-56
2022/08/25 00:08:39;;;;;;;5.80;5.30;;;;;26.00;100638.00;;;;2085886;28;20209;-55
2022/08/25 00:09:40;;;;;;;5.40;4.90;;;;;26.00;100641.00;;;;2087096;28;20240;-56
2022/08/25 00:10:41;;;;;;;7.73;4.80;;;;;26.00;100642.00;;;;2086745;28;20717;-55
2022/08/25 00:11:41;;;;;;;6.00;5.40;;;;;26.00;100647.00;;;;2086205;28;20217;-56
2022/08/25 00:12:41;;;;;;;4.93;4.53;;;;;26.00;100637.00;;;;2086625;28;20467;-56
2022/08/25 00:13:43;;;;;;;5.80;5.30;;;;;26.00;100654.00;;;;2091293;28;20258;-56
2022/08/25 00:14:44;;;;;;;5.60;5.20;;;;;26.00;100641.00;;;;2095257;28;20354;-56
2022/08/25 00:15:45;;;;;;;6.00;5.50;;;;;26.00;100646.00;;;;2094444;28;20872;-59
2022/08/25 00:16:46;;;;;;;5.83;5.33;;;;;26.00;100629.00;;;;2095203;28;20220;-56
2022/08/25 00:17:46;;;;;;;5.17;4.67;;;;;26.00;100639.00;;;;2086959;28;20460;-55
2022/08/25 00:18:50;;;;;;;5.83;5.33;;;;;26.00;100641.00;;;;2095260;28;20277;-56
2022/08/25 00:19:51;;;;;;;6.37;5.80;;;;;26.00;100626.00;;;;2094927;28;20211;-55
2022/08/25 00:20:51;;;;;;;5.73;5.13;;;;;26.00;100641.00;;;;2090649;28;20800;-55
2022/08/25 00:21:51;;;;;;;5.60;5.20;;;;;26.00;100643.00;;;;2092142;28;20679;-55
2022/08/25 00:22:52;;;;;;;4.90;4.50;;;;;26.00;100634.00;;;;2094393;28;20212;-55
2022/08/25 00:23:52;;;;;;;6.20;5.67;;;;;26.00;100637.00;;;;2094353;28;20304;-56
2022/08/25 00:24:52;;;;;;;5.17;4.77;;;;;26.00;100638.00;;;;2095222;28;20262;-55
2022/08/25 00:25:54;;;;;;;6.00;5.50;;;;;26.00;100661.00;;;;2094804;28;20846;-55
2022/08/25 00:26:55;;;;;;;5.63;5.00;;;;;26.00;100642.00;;;;2095179;28;20589;-56
2022/08/25 00:27:57;;;;;;;5.40;4.90;;;;;25.50;100646.00;;;;2093495;28;20482;-57
2022/08/25 00:28:58;;;;;;;5.17;4.77;;;;;26.00;100639.00;;;;2094170;28;20455;-55
2022/08/25 00:29:59;;;;;;;5.67;5.20;;;;;26.00;100644.00;;;;2090422;28;20509;-55
2022/08/25 00:31:00;;;;;;;6.10;5.50;;;;;26.00;100642.00;;;;2086851;28;20284;-56
2022/08/25 00:32:00;;;;;;;6.40;5.80;;;;;26.00;100640.00;;;;2086980;28;21058;-57
2022/08/25 00:33:00;;;;;;;5.40;4.97;;;;;26.00;100636.00;;;;2087158;28;20455;-55
2022/08/25 00:34:01;;;;;;;5.10;4.70;;;;;26.00;100640.00;;;;2086984;28;20232;-56
2022/08/25 00:35:02;;;;;;;5.67;5.17;;;;;26.00;100637.00;;;;2086601;28;20211;-56
2022/08/25 00:36:02;;;;;;;4.70;4.30;;;;;26.00;100641.00;;;;2078278;28;20213;-56
2022/08/25 00:37:05;;;;;;;5.43;5.00;;;;;26.00;100640.00;;;;2086609;28;20517;-56
2022/08/25 00:38:06;;;;;;;8.17;5.43;;;;;26.00;100650.00;;;;2085915;28;20217;-56
2022/08/25 00:39:06;;;;;;;5.50;5.00;;;;;26.00;100647.00;;;;2086184;28;20498;-56
2022/08/25 00:40:07;;;;;;;5.70;5.20;;;;;26.00;100643.00;;;;2093147;28;20706;-54
2022/08/25 00:41:10;;;;;;;5.70;5.30;;;;;26.00;100621.00;;;;2085941;28;20224;-55
2022/08/25 00:42:11;;;;;;;5.20;4.70;;;;;26.00;100599.00;;;;2086170;28;20243;-55
2022/08/25 00:43:11;;;;;;;4.93;4.53;;;;;26.00;100639.00;;;;2086588;28;20949;-56
2022/08/25 00:44:12;;;;;;;5.10;4.70;;;;;26.00;100643.00;;;;2085672;28;20529;-55
2022/08/25 00:45:13;;;;;;;5.23;4.60;;;;;26.00;100648.00;;;;2094417;28;20220;-55
2022/08/25 00:46:16;;;;;;;5.50;5.00;;;;;25.90;100645.00;;;;2095000;28;20462;-56
2022/08/25 00:47:18;;;;;;;4.73;4.40;;;;;26.00;100650.00;;;;2086879;28;20260;-55
2022/08/25 00:48:18;;;;;;;6.57;4.20;;;;;25.90;100646.00;;;;2087019;28;20458;-55
2022/08/25 00:49:30;;;;;;;5.13;4.67;;;;;26.00;100647.00;;;;2095179;28;20477;-55
2022/08/25 00:50:31;;;;;;;4.87;4.47;;;;;26.00;100649.00;;;;2095120;28;20212;-55
2022/08/25 00:51:41;;;;;;;5.10;4.60;;;;;26.00;100645.00;;;;2077925;28;20464;-56
2022/08/25 00:52:52;;;;;;;4.53;4.13;;;;;26.00;100638.00;;;;2080508;28;20219;-57
2022/08/25 00:53:53;;;;;;;5.10;4.70;;;;;26.00;100648.00;;;;2084734;28;20451;-57
2022/08/25 00:55:00;;;;;;;4.97;4.47;;;;;25.90;100614.00;;;;2086104;28;20458;-53
2022/08/25 00:56:00;;;;;;;4.70;4.30;;;;;25.90;100642.00;;;;2085710;28;20224;-57
2022/08/25 00:57:00;;;;;;;4.87;4.47;;;;;25.90;100649.00;;;;2076152;28;20456;-58
2022/08/25 00:58:12;;;;;;;5.10;4.70;;;;;25.90;100640.00;;;;2077311;28;20214;-57
2022/08/25 00:59:13;;;;;;;5.00;4.60;;;;;25.90;100638.00;;;;2079491;28;20213;-56
2022/08/25 01:00:15;;;;;;;4.80;4.40;;;;;25.90;100648.00;;;;2079355;28;21011;-58
2022/08/25 01:01:16;;;;;;;5.27;4.87;;;;;25.60;100648.00;;;;2085329;28;20613;-56
2022/08/25 01:02:16;;;;;;;4.93;4.53;;;;;25.90;100655.00;;;;2093774;28;20458;-56
2022/08/25 01:03:17;;;;;;;5.90;4.73;;;;;25.90;100644.00;;;;2094332;28;20234;-56
2022/08/25 01:04:18;;;;;;;5.80;5.27;;;;;25.90;100651.00;;;;2078152;28;20251;-56
2022/08/25 01:05:19;;;;;;;4.50;4.13;;;;;25.90;100639.00;;;;2086404;28;20466;-56
2022/08/25 01:06:20;;;;;;;4.90;4.50;;;;;25.90;100638.00;;;;2094498;28;20645;-55
2022/08/25 01:07:21;;;;;;;4.93;4.53;;;;;25.90;100650.00;;;;2093441;28;20484;-57
2022/08/25 01:08:24;;;;;;;5.00;4.60;;;;;25.90;100624.00;;;;2093918;28;20216;-55
2022/08/25 01:09:24;;;;;;;5.03;4.63;;;;;25.90;100646.00;;;;2084832;28;20213;-56
2022/08/25 01:10:25;;;;;;;4.93;4.53;;;;;25.90;100638.00;;;;2077548;28;21334;-55
2022/08/25 01:11:26;;;;;;;5.10;4.67;;;;;25.90;100647.00;;;;2077553;28;20220;-56
2022/08/25 01:12:26;;;;;;;5.90;4.50;;;;;25.90;100637.00;;;;2085655;28;20216;-55
2022/08/25 01:13:33;;;;;;;5.80;4.60;;;;;25.90;100638.00;;;;2093994;28;20871;-55
2022/08/25 01:14:34;;;;;;;4.40;4.00;;;;;25.90;100640.00;;;;2093950;28;20783;-57
2022/08/25 01:15:34;;;;;;;6.17;4.63;;;;;25.90;100638.00;;;;2085873;28;20498;-56
2022/08/25 01:16:35;;;;;;;4.60;4.20;;;;;25.90;100615.00;;;;2093946;28;20204;-56
2022/08/25 01:17:47;;;;;;;4.70;4.30;;;;;25.90;100646.00;;;;2093312;28;20593;-56
2022/08/25 01:18:52;;;;;;;4.77;4.33;;;;;25.90;100634.00;;;;2080280;28;20531;-56
2022/08/25 01:19:54;;;;;;;4.47;4.17;;;;;25.90;100644.00;;;;2082540;28;20443;-55
2022/08/25 01:20:58;;;;;;;4.43;4.03;;;;;25.90;100635.00;;;;2093478;28;20954;-58
2022/08/25 01:21:58;;;;;;;4.30;3.97;;;;;25.90;100644.00;;;;2093839;28;20443;-57
2022/08/25 01:22:59;;;;;;;4.70;4.30;;;;;25.90;100633.00;;;;2093883;28;20469;-55
2022/08/25 01:23:59;;;;;;;4.80;4.40;;;;;25.90;100633.00;;;;2094342;28;20216;-58
2022/08/25 01:25:02;;;;;;;4.37;4.07;;;;;25.90;100606.00;;;;2085623;28;20209;-58
2022/08/25 01:26:12;;;;;;;4.53;4.13;;;;;25.90;100638.00;;;;2084771;28;20201;-57
2022/08/25 01:27:12;;;;;;;5.10;4.30;;;;;25.90;100633.00;;;;2085052;28;20458;-55
2022/08/25 01:28:12;;;;;;;4.90;4.43;;;;;25.90;100642.00;;;;2084985;28;20456;-56
2022/08/25 01:29:24;;;;;;;4.40;4.10;;;;;25.90;100640.00;;;;2094229;28;20208;-56
2022/08/25 01:30:24;;;;;;;4.43;4.03;;;;;25.90;100642.00;;;;2094715;28;20212;-56
2022/08/25 01:31:26;;;;;;;4.20;3.90;;;;;25.90;100654.00;;;;2094307;28;20446;-57
2022/08/25 01:32:26;;;;;;;4.03;3.73;;;;;25.90;100642.00;;;;2094463;28;20211;-57
2022/08/25 01:33:26;;;;;;;4.43;4.03;;;;;25.90;100643.00;;;;2095361;28;20511;-59
2022/08/25 01:34:29;;;;;;;4.43;4.13;;;;;25.90;100644.00;;;;2095081;28;20220;-56
2022/08/25 01:35:29;;;;;;;4.00;3.70;;;;;25.90;100641.00;;;;2094854;28;20556;-56
2022/08/25 01:36:29;;;;;;;4.27;3.90;;;;;25.90;100639.00;;;;2094566;28;20454;-57
2022/08/25 01:37:30;;;;;;;4.20;3.90;;;;;25.90;100639.00;;;;2094157;28;20224;-56
2022/08/25 01:38:30;;;;;;;4.20;3.90;;;;;25.90;100639.00;;;;2087367;28;20236;-56
2022/08/25 01:39:35;;;;;;;4.20;3.87;;;;;25.90;100641.00;;;;2088090;28;20215;-56
2022/08/25 01:40:36;;;;;;;4.37;3.97;;;;;25.90;100649.00;;;;2096862;28;20220;-55
2022/08/25 01:41:53;;;;;;;4.20;3.90;;;;;25.90;100648.00;;;;2090270;28;20447;-56
2022/08/25 01:43:20;;;;;;;4.33;3.93;;;;;25.90;100641.00;;;;2093250;28;20215;-57
2022/08/25 01:44:20;;;;;;;4.53;4.13;;;;;25.90;100644.00;;;;2095760;28;20446;-56
2022/08/25 01:45:21;;;;;;;4.10;3.80;;;;;25.90;100628.00;;;;2095955;28;20938;-56
2022/08/25 01:46:21;;;;;;;3.83;3.53;;;;;25.90;100639.00;;;;2092973;28;20554;-56
2022/08/25 01:47:22;;;;;;;4.03;3.70;;;;;25.90;100643.00;;;;2088404;28;20220;-57
2022/08/25 01:48:23;;;;;;;3.70;3.40;;;;;25.90;100640.00;;;;2091055;28;20292;-56
2022/08/25 01:49:23;;;;;;;4.47;4.07;;;;;25.90;100643.00;;;;2091329;28;20897;-56
2022/08/25 01:50:23;;;;;;;4.17;3.80;;;;;25.90;100648.00;;;;2096779;28;20869;-57
2022/08/25 01:51:24;;;;;;;4.40;4.10;;;;;25.80;100643.00;;;;2096681;28;20743;-57
2022/08/25 01:52:57;;;;;;;4.27;3.77;;;;;25.80;100640.00;;;;2094366;28;20242;-56
2022/08/25 01:53:57;;;;;;;4.50;4.00;;;;;25.80;100641.00;;;;2094810;28;20281;-58
2022/08/25 01:54:57;;;;;;;4.47;4.17;;;;;25.80;100628.00;;;;2092415;28;20908;-56
2022/08/25 01:56:01;;;;;;;3.93;3.63;;;;;25.80;100646.00;;;;2088313;28;20209;-57
2022/08/25 01:57:01;;;;;;;4.10;3.70;;;;;25.90;100647.00;;;;2077438;28;20596;-56
2022/08/25 01:58:01;;;;;;;4.57;4.17;;;;;25.80;100642.00;;;;2094100;28;20533;-56
2022/08/25 01:59:01;;;;;;;4.13;3.83;;;;;25.80;100649.00;;;;2095633;28;20204;-56
2022/08/25 02:00:05;;;;;;;5.10;4.07;;;;;25.80;100648.00;;;;2095788;28;20215;-56
2022/08/25 02:01:07;;;;;;;3.90;3.60;;;;;25.80;100637.00;;;;2095852;28;20337;-56
2022/08/25 02:02:08;;;;;;;3.73;3.43;;;;;25.80;100643.00;;;;2095127;28;20469;-57
2022/08/25 02:03:08;;;;;;;4.07;3.77;;;;;25.80;100638.00;;;;2096461;28;20454;-57
2022/08/25 02:04:08;;;;;;;4.10;3.80;;;;;25.80;100631.00;;;;2094500;28;20637;-56
2022/08/25 02:05:10;;;;;;;5.10;4.20;;;;;25.80;100635.00;;;;2087910;28;20651;-56
2022/08/25 02:06:11;;;;;;;4.27;3.97;;;;;25.80;100629.00;;;;2087915;28;20622;-56
2022/08/25 02:07:11;;;;;;;4.27;3.80;;;;;25.80;100630.00;;;;2087900;28;20471;-56
2022/08/25 02:08:12;;;;;;;4.50;4.07;;;;;25.80;100636.00;;;;2087302;28;20538;-56
2022/08/25 02:09:13;;;;;;;4.00;3.70;;;;;25.80;100632.00;;;;2088006;28;20209;-55
2022/08/25 02:10:14;;;;;;;4.17;3.87;;;;;25.80;100636.00;;;;2087173;28;20720;-56
2022/08/25 02:11:14;;;;;;;4.27;3.97;;;;;25.80;100634.00;;;;2087063;28;20452;-56
2022/08/25 02:12:14;;;;;;;4.00;3.70;;;;;25.80;100629.00;;;;2087721;28;20302;-56
2022/08/25 02:13:15;;;;;;;4.30;3.93;;;;;25.80;100630.00;;;;2088037;28;20220;-56
2022/08/25 02:14:15;;;;;;;4.23;3.80;;;;;25.80;100618.00;;;;2088303;28;20722;-56
2022/08/25 02:15:16;;;;;;;4.50;4.10;;;;;25.80;100640.00;;;;2092156;28;20211;-55
2022/08/25 02:16:27;;;;;;;5.20;3.77;;;;;25.80;100636.00;;;;2095548;28;20660;-55
2022/08/25 02:17:28;;;;;;;4.77;4.00;;;;;25.80;100637.00;;;;2086390;28;20225;-57
2022/08/25 02:18:28;;;;;;;4.70;4.07;;;;;25.80;100631.00;;;;2088248;28;20521;-56
2022/08/25 02:19:30;;;;;;;3.80;3.50;;;;;25.80;100636.00;;;;2095706;28;20508;-55
2022/08/25 02:20:30;;;;;;;3.60;3.40;;;;;25.80;100634.00;;;;2095593;28;20216;-55
2022/08/25 02:21:31;;;;;;;4.10;3.70;;;;;25.80;100643.00;;;;2096341;28;20450;-56
2022/08/25 02:22:31;;;;;;;7.33;3.57;;;;;25.80;100644.00;;;;2095813;28;20225;-57
2022/08/25 02:23:32;;;;;;;4.33;3.60;;;;;25.80;100639.00;;;;2096282;28;20460;-56
2022/08/25 02:24:32;;;;;;;3.70;3.40;;;;;25.80;100645.00;;;;2096090;28;20207;-56
2022/08/25 02:25:32;;;;;;;4.70;3.73;;;;;25.80;100645.00;;;;2096236;28;20349;-57
2022/08/25 02:26:33;;;;;;;4.30;3.93;;;;;25.80;100642.00;;;;2095822;28;20227;-56
2022/08/25 02:27:33;;;;;;;3.87;3.57;;;;;25.80;100643.00;;;;2094928;28;21517;-57
2022/08/25 02:28:34;;;;;;;4.10;3.70;;;;;25.80;100636.00;;;;2095857;28;20219;-59
2022/08/25 02:29:34;;;;;;;3.90;3.60;;;;;25.80;100640.00;;;;2092426;28;20221;-58
2022/08/25 02:30:36;;;;;;;4.73;3.50;;;;;25.80;100641.00;;;;2096156;28;20228;-58
2022/08/25 02:31:36;;;;;;;3.70;3.40;;;;;25.80;100647.00;;;;2096075;28;20273;-55
2022/08/25 02:32:38;;;;;;;3.97;3.57;;;;;25.80;100649.00;;;;2096238;28;20523;-56
2022/08/25 02:33:38;;;;;;;5.10;4.17;;;;;25.80;100644.00;;;;2088736;28;20554;-56
2022/08/25 02:34:40;;;;;;;4.03;3.73;;;;;25.80;100641.00;;;;2087606;28;20485;-56
2022/08/25 02:35:41;;;;;;;4.13;3.80;;;;;25.80;100650.00;;;;2087711;28;20259;-56
2022/08/25 02:36:41;;;;;;;3.73;3.43;;;;;25.80;100642.00;;;;2087029;28;20456;-56
2022/08/25 02:37:42;;;;;;;4.13;3.83;;;;;25.80;100639.00;;;;2087121;28;20284;-56
2022/08/25 02:38:42;;;;;;;3.57;3.27;;;;;25.80;100647.00;;;;2092640;28;20456;-56
2022/08/25 02:39:42;;;;;;;3.40;3.20;;;;;25.80;100646.00;;;;2095907;28;20208;-57
2022/08/25 02:40:43;;;;;;;4.20;3.80;;;;;25.80;100644.00;;;;2095661;28;20208;-56
2022/08/25 02:41:43;;;;;;;3.70;3.40;;;;;25.80;100668.00;;;;2095801;28;20204;-57
2022/08/25 02:42:43;;;;;;;3.57;3.27;;;;;25.80;100651.00;;;;2096058;28;20548;-56
2022/08/25 02:43:44;;;;;;;3.97;3.67;;;;;25.80;100649.00;;;;2096034;28;20231;-55
2022/08/25 02:44:44;;;;;;;3.53;3.23;;;;;25.80;100654.00;;;;2095873;28;20208;-56
2022/08/25 02:45:45;;;;;;;4.13;3.70;;;;;25.80;100655.00;;;;2096070;28;20228;-56
2022/08/25 02:46:45;;;;;;;3.57;3.27;;;;;25.80;100651.00;;;;2088016;28;20230;-56
2022/08/25 02:47:46;;;;;;;3.70;3.40;;;;;25.80;100654.00;;;;2086906;28;20205;-57
2022/08/25 02:48:46;;;;;;;3.33;3.03;;;;;25.90;100645.00;;;;2087590;28;20212;-55
2022/08/25 02:49:47;;;;;;;4.07;3.60;;;;;25.80;100641.00;;;;2087128;28;21044;-57
2022/08/25 02:50:48;;;;;;;3.47;3.27;;;;;25.70;100645.00;;;;2095057;28;20212;-56
2022/08/25 02:51:49;;;;;;;3.57;3.27;;;;;25.70;100646.00;;;;2095589;28;20203;-56
2022/08/25 02:52:50;;;;;;;3.90;3.50;;;;;25.70;100649.00;;;;2095966;28;20450;-57
2022/08/25 02:53:51;;;;;;;3.43;3.13;;;;;25.70;100574.00;;;;2095937;28;20300;-56
2022/08/25 02:54:51;;;;;;;4.23;3.53;;;;;25.80;100644.00;;;;2095105;28;20477;-55
2022/08/25 02:55:51;;;;;;;4.00;3.70;;;;;25.80;100638.00;;;;2095241;28;20212;-55
2022/08/25 02:56:52;;;;;;;3.60;3.40;;;;;25.70;100647.00;;;;2095627;28;20216;-55
2022/08/25 02:57:52;;;;;;;3.80;3.50;;;;;25.80;100646.00;;;;2095041;28;20205;-55
2022/08/25 02:58:53;;;;;;;3.50;3.20;;;;;25.80;100647.00;;;;2095732;28;20219;-56
2022/08/25 02:59:53;;;;;;;3.30;3.10;;;;;25.80;100638.00;;;;2095645;28;20243;-55
2022/08/25 03:00:55;;;;;;;3.83;3.53;;;;;25.80;100647.00;;;;2095867;28;20209;-55
2022/08/25 03:01:55;;;;;;;3.97;3.67;;;;;25.80;100644.00;;;;2095727;28;20211;-55
2022/08/25 03:02:56;;;;;;;3.60;3.30;;;;;25.70;100650.00;;;;2096006;28;20494;-55
2022/08/25 03:03:56;;;;;;;3.93;3.53;;;;;25.70;100648.00;;;;2095584;28;20258;-55
2022/08/25 03:04:57;;;;;;;3.83;3.53;;;;;25.70;100642.00;;;;2095821;28;20715;-56
2022/08/25 03:05:57;;;;;;;4.00;3.60;;;;;25.70;100647.00;;;;2095906;28;20691;-55
2022/08/25 03:06:58;;;;;;;3.43;3.13;;;;;25.80;100643.00;;;;2095654;28;20695;-55
2022/08/25 03:07:58;;;;;;;3.97;3.57;;;;;25.80;100647.00;;;;2085851;28;21580;-55
2022/08/25 03:08:59;;;;;;;3.53;3.23;;;;;25.80;100638.00;;;;2086882;28;20227;-55
2022/08/25 03:09:59;;;;;;;4.10;3.80;;;;;25.80;100636.00;;;;2095945;28;20235;-55
2022/08/25 03:10:59;;;;;;;3.90;3.60;;;;;25.80;100640.00;;;;2086559;28;20228;-55
2022/08/25 03:12:00;;;;;;;3.97;3.60;;;;;25.80;100639.00;;;;2086516;28;20209;-55
2022/08/25 03:13:01;;;;;;;3.97;3.67;;;;;25.80;100640.00;;;;2095751;28;20311;-55
2022/08/25 03:14:01;;;;;;;3.67;3.43;;;;;25.80;100640.00;;;;2095043;28;20463;-56
2022/08/25 03:15:02;;;;;;;3.30;3.00;;;;;25.80;100631.00;;;;2095057;28;20242;-55
2022/08/25 03:16:03;;;;;;;3.70;3.10;;;;;25.80;100630.00;;;;2095854;28;20220;-55
2022/08/25 03:17:05;;;;;;;3.60;3.30;;;;;25.80;100631.00;;;;2095524;28;20223;-55
2022/08/25 03:18:05;;;;;;;3.67;3.37;;;;;25.80;100600.00;;;;2092051;28;20615;-55
2022/08/25 03:19:05;;;;;;;6.40;3.13;;;;;25.80;100616.00;;;;2094986;28;20458;-55
2022/08/25 03:20:06;;;;;;;3.47;3.20;;;;;25.80;100617.00;;;;2094734;28;20711;-55
2022/08/25 03:21:06;;;;;;;3.67;3.37;;;;;25.80;100607.00;;;;2095650;28;20698;-55
2022/08/25 03:22:07;;;;;;;4.00;3.60;;;;;25.70;100621.00;;;;2095404;28;20231;-56
2022/08/25 03:23:07;;;;;;;3.80;3.50;;;;;25.80;100606.00;;;;2095675;28;20261;-55
2022/08/25 03:24:07;;;;;;;3.40;3.20;;;;;25.80;100618.00;;;;2095414;28;20216;-56
2022/08/25 03:27:47;;;;;;;3.93;3.60;;;;;25.80;100609.00;;;;2094461;28;20454;-55
2022/08/25 03:28:47;;;;;;;3.93;3.63;;;;;25.80;100606.00;;;;2095326;28;20442;-55
2022/08/25 03:29:48;;;;;;;3.20;2.90;;;;;25.80;100608.00;;;;2095860;28;20470;-55
2022/08/25 03:30:48;;;;;;;3.60;3.30;;;;;25.80;100614.00;;;;2095892;28;20215;-55
2022/08/25 03:31:49;;;;;;;4.03;3.73;;;;;25.70;100612.00;;;;2095794;28;20200;-55
2022/08/25 03:32:50;;;;;;;3.93;3.63;;;;;25.80;100607.00;;;;2095297;28;20299;-55
2022/08/25 03:33:50;;;;;;;3.27;3.07;;;;;25.80;100608.00;;;;2095605;28;20993;-55
2022/08/25 03:34:50;;;;;;;3.67;3.37;;;;;25.70;100611.00;;;;2095596;28;20212;-56
2022/08/25 03:35:51;;;;;;;3.93;3.43;;;;;25.70;100605.00;;;;2095474;28;20231;-55
2022/08/25 03:36:51;;;;;;;3.53;3.23;;;;;25.80;100595.00;;;;2095682;28;20265;-55
2022/08/25 03:37:55;;;;;;;3.33;3.13;;;;;25.80;100616.00;;;;2094087;28;20223;-54
2022/08/25 03:38:56;;;;;;;3.50;3.20;;;;;25.70;100613.00;;;;2087070;28;20224;-55
2022/08/25 03:39:57;;;;;;;3.50;3.20;;;;;25.70;100611.00;;;;2086535;28;20499;-56
2022/08/25 03:40:57;;;;;;;4.17;3.77;;;;;25.70;100621.00;;;;2094921;28;20628;-55
2022/08/25 03:41:58;;;;;;;3.50;3.20;;;;;25.70;100615.00;;;;2095134;28;20262;-54
2022/08/25 03:42:59;;;;;;;3.10;2.80;;;;;25.70;100612.00;;;;2095236;28;20204;-55
2022/08/25 03:43:59;;;;;;;3.50;3.20;;;;;25.80;100619.00;;;;2095613;28;20230;-55
2022/08/25 03:45:03;;;;;;;3.60;3.30;;;;;25.70;100617.00;;;;2094579;28;20455;-55
2022/08/25 03:46:04;;;;;;;4.00;3.70;;;;;25.70;100613.00;;;;2094963;28;20581;-55
2022/08/25 03:47:04;;;;;;;3.80;3.50;;;;;25.70;100616.00;;;;2095394;28;20505;-55
2022/08/25 03:48:05;;;;;;;3.40;3.20;;;;;25.70;100613.00;;;;2085591;28;20235;-55
2022/08/25 03:49:06;;;;;;;3.40;3.20;;;;;25.70;100613.00;;;;2086439;28;20216;-56
2022/08/25 03:50:08;;;;;;;3.60;3.30;;;;;25.70;100613.00;;;;2094569;28;20220;-56
2022/08/25 03:51:08;;;;;;;3.63;3.30;;;;;25.70;100605.00;;;;2078359;28;20460;-55
2022/08/25 03:52:09;;;;;;;3.50;3.20;;;;;25.70;100613.00;;;;2086778;28;20481;-55
2022/08/25 03:53:09;;;;;;;3.63;3.33;;;;;25.70;100613.00;;;;2095625;28;20250;-55
2022/08/25 03:54:09;;;;;;;4.07;3.67;;;;;25.70;100603.00;;;;2094934;28;20234;-56
2022/08/25 03:55:11;;;;;;;3.90;3.60;;;;;25.70;100608.00;;;;2094641;28;20216;-55
2022/08/25 03:56:12;;;;;;;4.30;3.87;;;;;25.70;100629.00;;;;2095324;28;20299;-56
2022/08/25 03:57:12;;;;;;;3.57;3.27;;;;;25.70;100603.00;;;;2095417;28;20923;-56
2022/08/25 03:58:12;;;;;;;5.07;3.63;;;;;25.70;100617.00;;;;2094477;28;20303;-55
2022/08/25 03:59:13;;;;;;;3.57;3.27;;;;;25.70;100610.00;;;;2093904;28;20220;-55
2022/08/25 04:00:13;;;;;;;3.70;3.40;;;;;25.70;100610.00;;;;2095413;28;20220;-56
2022/08/25 04:01:14;;;;;;;3.80;3.50;;;;;25.70;100607.00;;;;2094884;28;20248;-56
2022/08/25 04:02:14;;;;;;;3.53;3.23;;;;;25.70;100605.00;;;;2095216;28;20299;-56
2022/08/25 04:03:16;;;;;;;4.03;3.73;;;;;25.70;100613.00;;;;2095110;28;20586;-56
2022/08/25 04:04:16;;;;;;;3.97;3.67;;;;;25.70;100606.00;;;;2094587;28;20242;-56
2022/08/25 04:05:17;;;;;;;4.40;4.00;;;;;25.70;100606.00;;;;2094650;28;21005;-56
2022/08/25 04:06:17;;;;;;;5.17;3.50;;;;;25.70;100607.00;;;;2094878;28;20697;-56
2022/08/25 04:07:18;;;;;;;4.23;3.83;;;;;25.70;100605.00;;;;2094374;28;20621;-57
2022/08/25 04:08:19;;;;;;;3.87;3.50;;;;;25.70;100599.00;;;;2095143;28;20298;-56
2022/08/25 04:09:19;;;;;;;3.50;3.20;;;;;25.70;100614.00;;;;2095249;28;20482;-56
2022/08/25 04:10:20;;;;;;;4.27;3.53;;;;;25.70;100593.00;;;;2095357;28;20239;-56
2022/08/25 04:11:21;;;;;;;3.70;3.40;;;;;25.70;100616.00;;;;2095330;28;20216;-56
2022/08/25 04:12:21;;;;;;;3.80;3.50;;;;;25.70;100610.00;;;;2094571;28;20274;-56
2022/08/25 04:13:22;;;;;;;3.77;3.47;;;;;25.70;100609.00;;;;2094790;28;20454;-58
2022/08/25 04:14:22;;;;;;;3.60;3.30;;;;;25.60;100611.00;;;;2094881;28;20315;-54
2022/08/25 04:15:23;;;;;;;3.80;3.50;;;;;25.60;100600.00;;;;2094498;28;20212;-58
2022/08/25 04:16:26;;;;;;;3.40;3.10;;;;;25.60;100606.00;;;;2086421;28;20231;-58
2022/08/25 04:17:27;;;;;;;3.53;3.30;;;;;25.60;100599.00;;;;2087430;28;21402;-54
2022/08/25 04:18:29;;;;;;;3.77;3.47;;;;;25.70;100594.00;;;;2087055;28;20512;-57
2022/08/25 04:19:30;;;;;;;3.80;3.50;;;;;25.70;100588.00;;;;2086986;28;20216;-58
2022/08/25 04:20:30;;;;;;;4.30;3.90;;;;;25.60;100598.00;;;;2088716;28;20991;-58
2022/08/25 04:21:30;;;;;;;4.00;3.70;;;;;25.60;100582.00;;;;2095391;28;20695;-57
2022/08/25 04:22:31;;;;;;;4.23;3.47;;;;;25.60;100589.00;;;;2094415;28;20216;-56
2022/08/25 04:23:31;;;;;;;3.80;3.33;;;;;25.70;100573.00;;;;2094293;28;20207;-56
2022/08/25 04:24:32;;;;;;;3.63;3.33;;;;;25.70;100587.00;;;;2089506;28;20213;-57
2022/08/25 04:25:32;;;;;;;3.93;3.53;;;;;25.60;100587.00;;;;2077733;28;20231;-58
2022/08/25 04:26:35;;;;;;;5.13;3.80;;;;;25.70;100577.00;;;;2089408;28;20227;-58
2022/08/25 04:27:36;;;;;;;3.57;3.27;;;;;25.70;100581.00;;;;2094356;28;20691;-55
2022/08/25 04:28:36;;;;;;;3.43;3.13;;;;;25.70;100583.00;;;;2094406;28;20651;-52
2022/08/25 04:29:37;;;;;;;4.00;3.70;;;;;25.70;100606.00;;;;2086304;28;20229;-55
2022/08/25 04:30:40;;;;;;;3.67;3.37;;;;;25.60;100577.00;;;;2094565;28;20766;-55
2022/08/25 04:31:43;;;;;;;4.00;3.30;;;;;25.60;100572.00;;;;2094567;28;20640;-57
2022/08/25 04:32:43;;;;;;;3.90;3.60;;;;;25.60;100576.00;;;;2094478;28;20773;-55
2022/08/25 04:33:45;;;;;;;3.30;3.00;;;;;25.60;100575.00;;;;2095132;28;20454;-56
2022/08/25 04:34:45;;;;;;;4.20;3.80;;;;;25.60;100574.00;;;;2094973;28;20362;-55
2022/08/25 04:35:47;;;;;;;3.80;3.50;;;;;25.60;100578.00;;;;2095247;28;20455;-55
2022/08/25 04:36:49;;;;;;;3.43;3.20;;;;;25.60;100580.00;;;;2094641;28;20637;-56
2022/08/25 04:37:50;;;;;;;3.63;3.33;;;;;25.60;100574.00;;;;2094100;28;21051;-55
2022/08/25 04:38:50;;;;;;;3.67;3.33;;;;;25.60;100575.00;;;;2095202;28;20465;-55
2022/08/25 04:39:51;;;;;;;3.90;3.60;;;;;25.60;100580.00;;;;2095181;28;20633;-55
2022/08/25 04:40:57;;;;;;;4.13;3.73;;;;;25.60;100579.00;;;;2094362;28;20695;-55
2022/08/25 04:41:59;;;;;;;5.43;3.43;;;;;25.60;100579.00;;;;2080818;28;20849;-55
2022/08/25 04:42:59;;;;;;;3.80;3.50;;;;;25.60;100577.00;;;;2094474;28;20462;-55
2022/08/25 04:43:59;;;;;;;4.27;3.97;;;;;25.60;100572.00;;;;2095284;28;20477;-55
2022/08/25 04:45:00;;;;;;;4.27;3.97;;;;;25.60;100592.00;;;;2094706;28;20583;-55
2022/08/25 04:46:07;;;;;;;4.03;3.73;;;;;25.60;100573.00;;;;2093068;28;20303;-56
2022/08/25 04:47:09;;;;;;;4.03;3.70;;;;;25.60;100571.00;;;;2092644;28;20216;-54
2022/08/25 04:48:10;;;;;;;3.90;3.60;;;;;25.60;100582.00;;;;2085312;28;20450;-56
2022/08/25 04:49:10;;;;;;;3.83;3.50;;;;;25.60;100581.00;;;;2076306;28;20464;-56
2022/08/25 04:50:10;;;;;;;3.63;3.20;;;;;25.60;100581.00;;;;2079299;28;20267;-54
2022/08/25 04:51:13;;;;;;;3.87;3.57;;;;;25.60;100586.00;;;;2086322;28;20294;-56
2022/08/25 04:52:14;;;;;;;3.93;3.63;;;;;25.60;100587.00;;;;2094486;28;20238;-57
2022/08/25 04:53:14;;;;;;;3.83;3.53;;;;;25.60;100599.00;;;;2094319;28;20496;-56
2022/08/25 04:54:21;;;;;;;4.20;3.80;;;;;25.60;100593.00;;;;2094454;28;20303;-54
2022/08/25 04:55:22;;;;;;;4.03;3.73;;;;;25.60;100588.00;;;;2094314;28;20219;-57
2022/08/25 04:56:23;;;;;;;4.00;3.70;;;;;25.60;100607.00;;;;2094305;28;20986;-55
2022/08/25 04:57:24;;;;;;;4.20;3.80;;;;;25.50;100586.00;;;;2094336;28;20907;-57
2022/08/25 04:58:24;;;;;;;4.13;3.70;;;;;25.60;100594.00;;;;2094024;28;20455;-63
2022/08/25 04:59:25;;;;;;;4.17;3.80;;;;;25.60;100593.00;;;;2086144;28;20583;-57
2022/08/25 05:00:25;;;;;;;3.97;3.67;;;;;25.60;100590.00;;;;2093177;28;20645;-56
2022/08/25 05:01:26;;;;;;;3.70;3.23;;;;;25.60;100595.00;;;;2093618;28;20222;-56
2022/08/25 05:02:26;;;;;;;4.07;3.77;;;;;25.60;100594.00;;;;2086770;28;20236;-56
2022/08/25 05:03:27;;;;;;;4.23;3.83;;;;;25.60;100590.00;;;;2086837;28;20220;-57
2022/08/25 05:04:27;;;;;;;4.00;3.70;;;;;25.60;100567.00;;;;2086715;28;20694;-56
2022/08/25 05:05:27;;;;;;;3.77;3.40;;;;;25.60;100590.00;;;;2085992;28;20299;-56
2022/08/25 05:06:28;;;;;;;4.00;3.70;;;;;25.60;100593.00;;;;2085895;28;20216;-57